createdAt,value
2023-12-20T00:01:01.422Z,3.17
2023-12-20T00:03:27.889Z,3.50
2023-12-20T00:05:54.645Z,3.70
2023-12-20T00:08:21.066Z,3.65
2023-12-20T00:10:47.475Z,3.58
2023-12-20T00:13:13.960Z,3.33
2023-12-20T00:15:40.491Z,3.40
2023-12-20T00:18:07.068Z,3.35
2023-12-20T00:20:33.600Z,3.00
2023-12-20T00:23:00.081Z,2.50
2023-12-20T00:25:26.483Z,2.97
2023-12-20T00:27:53.630Z,2.88
2023-12-20T00:30:20.367Z,2.75
2023-12-20T00:32:49.564Z,3.00
2023-12-20T00:35:17.196Z,2.53
2023-12-20T00:37:44.557Z,2.58
2023-12-20T00:40:11.764Z,2.40
2023-12-20T00:42:38.354Z,2.20
2023-12-20T00:45:05.836Z,2.67
2023-12-20T00:47:32.494Z,2.67
2023-12-20T00:49:59.380Z,2.50
2023-12-20T00:52:26.225Z,2.35
2023-12-20T00:54:53.416Z,2.78
2023-12-20T00:57:20.004Z,2.95
2023-12-20T00:59:46.436Z,2.80
2023-12-20T01:02:12.875Z,3.10
2023-12-20T01:04:39.410Z,2.97
2023-12-20T01:07:05.932Z,2.83
2023-12-20T01:09:32.378Z,2.63
2023-12-20T01:11:58.966Z,3.25
2023-12-20T01:14:25.631Z,2.50
2023-12-20T01:16:52.066Z,2.72
2023-12-20T01:19:18.589Z,2.65
2023-12-20T01:21:45.092Z,3.28
2023-12-20T01:24:11.807Z,2.70
2023-12-20T01:26:38.284Z,3.00
2023-12-20T01:29:04.726Z,3.05
2023-12-20T01:31:31.281Z,3.28
2023-12-20T01:33:57.779Z,3.25
2023-12-20T01:36:24.300Z,2.70
2023-12-20T01:38:50.778Z,3.45
2023-12-20T01:41:17.332Z,2.40
2023-12-20T01:43:50.784Z,2.63
2023-12-20T01:46:18.687Z,2.53
2023-12-20T01:48:45.548Z,2.40
2023-12-20T01:51:12.240Z,2.65
2023-12-20T01:53:42.004Z,2.67
2023-12-20T01:56:09.613Z,2.33
2023-12-20T01:58:44.330Z,2.67
2023-12-20T02:01:11.540Z,3.42
2023-12-20T02:03:38.323Z,2.83
2023-12-20T02:06:06.340Z,2.83
2023-12-20T02:08:32.802Z,2.63
2023-12-20T02:10:59.369Z,2.83
2023-12-20T02:13:27.961Z,3.30
2023-12-20T02:15:55.946Z,3.15
2023-12-20T02:18:23.103Z,3.00
2023-12-20T02:20:49.556Z,3.22
2023-12-20T02:23:16.119Z,3.08
2023-12-20T02:25:42.695Z,3.42
2023-12-20T02:28:09.520Z,3.25
2023-12-20T02:30:35.966Z,3.45
2023-12-20T02:33:04.894Z,4.22
2023-12-20T02:35:31.312Z,4.00
2023-12-20T02:37:57.680Z,3.88
2023-12-20T02:40:24.192Z,4.32
2023-12-20T02:42:50.678Z,4.38
2023-12-20T02:45:17.143Z,4.25
2023-12-20T02:47:43.925Z,4.10
2023-12-20T02:50:10.586Z,4.07
2023-12-20T02:52:37.075Z,3.78
2023-12-20T02:55:03.693Z,3.92
2023-12-20T02:57:30.190Z,4.55
2023-12-20T02:59:56.573Z,4.40
2023-12-20T03:02:22.971Z,4.50
2023-12-20T03:04:49.478Z,3.42
2023-12-20T03:07:15.922Z,4.15
2023-12-20T03:09:54.111Z,3.83
2023-12-20T03:12:28.761Z,3.97
2023-12-20T03:14:55.365Z,3.97
2023-12-20T03:17:22.119Z,4.00
2023-12-20T03:19:48.558Z,4.20
2023-12-20T03:22:15.062Z,4.10
2023-12-20T03:24:41.532Z,3.53
2023-12-20T03:27:08.030Z,3.95
2023-12-20T03:29:34.441Z,3.80
2023-12-20T03:32:00.923Z,3.33
2023-12-20T03:34:28.099Z,3.40
2023-12-20T03:36:54.562Z,3.22
2023-12-20T03:39:20.992Z,3.10
2023-12-20T03:41:47.510Z,3.42
2023-12-20T03:44:13.923Z,2.95
2023-12-20T03:46:40.350Z,3.70
2023-12-20T03:49:06.768Z,3.55
2023-12-20T03:51:33.191Z,3.10
2023-12-20T03:53:59.612Z,2.95
2023-12-20T03:56:26.013Z,3.03
2023-12-20T03:58:52.727Z,3.00
2023-12-20T04:01:19.247Z,3.10
2023-12-20T04:03:45.741Z,3.22
2023-12-20T04:06:18.051Z,2.90
2023-12-20T04:08:44.560Z,3.25
2023-12-20T04:11:10.980Z,2.95
2023-12-20T04:13:37.446Z,2.58
2023-12-20T04:16:04.375Z,3.53
2023-12-20T04:18:30.877Z,3.28
2023-12-20T04:20:57.427Z,2.92
2023-12-20T04:23:23.838Z,2.85
2023-12-20T04:25:50.284Z,3.50
2023-12-20T04:28:16.829Z,2.53
2023-12-20T04:30:43.658Z,3.35
2023-12-20T04:33:10.318Z,3.22
2023-12-20T04:35:36.836Z,2.80
2023-12-20T04:38:03.375Z,3.17
2023-12-20T04:40:29.822Z,2.70
2023-12-20T04:42:56.314Z,3.05
2023-12-20T04:45:23.085Z,3.40
2023-12-20T04:47:49.768Z,3.20
2023-12-20T04:50:16.858Z,3.25
2023-12-20T04:52:43.446Z,3.20
2023-12-20T04:55:10.094Z,2.75
2023-12-20T04:57:36.641Z,2.97
2023-12-20T05:00:03.914Z,3.22
2023-12-20T05:02:30.386Z,3.50
2023-12-20T05:04:56.824Z,3.03
2023-12-20T05:07:23.376Z,3.45
2023-12-20T05:09:50.022Z,2.97
2023-12-20T05:12:16.505Z,3.40
2023-12-20T05:14:42.901Z,3.88
2023-12-20T05:17:09.371Z,3.25
2023-12-20T05:19:36.537Z,3.75
2023-12-20T05:22:03.607Z,3.55
2023-12-20T05:24:30.086Z,3.42
2023-12-20T05:26:56.542Z,3.20
2023-12-20T05:29:23.092Z,3.45
2023-12-20T05:31:49.519Z,3.97
2023-12-20T05:34:16.175Z,4.05
2023-12-20T05:36:42.679Z,3.60
2023-12-20T05:39:09.108Z,4.22
2023-12-20T05:41:35.631Z,3.80
2023-12-20T05:44:02.045Z,3.72
2023-12-20T05:46:28.628Z,3.05
2023-12-20T05:48:55.198Z,4.07
2023-12-20T05:51:21.635Z,4.07
2023-12-20T05:53:48.083Z,4.30
2023-12-20T05:56:14.493Z,4.30
2023-12-20T05:58:41.241Z,4.50
2023-12-20T06:01:09.787Z,4.20
2023-12-20T06:03:36.529Z,4.53
2023-12-20T06:06:15.880Z,3.60
2023-12-20T06:08:44.606Z,4.75
2023-12-20T06:11:11.138Z,4.28
2023-12-20T06:13:37.615Z,3.58
2023-12-20T06:16:06.468Z,4.05
2023-12-20T06:18:32.993Z,4.15
2023-12-20T06:20:59.400Z,4.28
2023-12-20T06:23:25.872Z,4.35
2023-12-20T06:25:52.331Z,4.65
2023-12-20T06:28:18.743Z,3.63
2023-12-20T06:30:45.480Z,4.93
2023-12-20T06:33:12.691Z,4.38
2023-12-20T06:35:39.270Z,4.65
2023-12-20T06:38:05.691Z,4.10
2023-12-20T06:40:32.261Z,3.97
2023-12-20T06:43:05.349Z,4.35
2023-12-20T06:45:38.697Z,4.18
2023-12-20T06:48:05.688Z,4.13
2023-12-20T06:50:32.181Z,3.90
2023-12-20T06:52:58.634Z,4.10
2023-12-20T06:55:25.150Z,3.95
2023-12-20T06:57:51.571Z,3.92
2023-12-20T07:00:18.890Z,3.70
2023-12-20T07:02:45.315Z,3.63
2023-12-20T07:05:11.766Z,4.53
2023-12-20T07:07:38.351Z,3.95
2023-12-20T07:10:05.312Z,4.10
2023-12-20T07:12:31.767Z,3.90
2023-12-20T07:14:58.234Z,3.45
2023-12-20T07:17:24.669Z,4.10
2023-12-20T07:19:51.313Z,3.58
2023-12-20T07:22:17.837Z,4.32
2023-12-20T07:24:44.256Z,3.35
2023-12-20T07:27:10.709Z,3.33
2023-12-20T07:29:37.142Z,3.63
2023-12-20T07:32:03.681Z,3.47
2023-12-20T07:34:30.221Z,3.63
2023-12-20T07:36:56.692Z,3.53
2023-12-20T07:39:23.198Z,3.33
2023-12-20T07:41:49.658Z,4.63
2023-12-20T07:44:16.824Z,3.65
2023-12-20T07:46:43.279Z,3.33
2023-12-20T07:49:11.370Z,3.58
2023-12-20T07:51:37.970Z,3.88
2023-12-20T07:54:05.904Z,3.95
2023-12-20T07:56:32.354Z,3.85
2023-12-20T07:59:00.777Z,4.70
2023-12-20T08:01:27.511Z,3.58
2023-12-20T08:03:54.177Z,3.33
2023-12-20T08:06:21.107Z,3.53
2023-12-20T08:08:55.364Z,3.15
2023-12-20T08:11:25.479Z,2.88
2023-12-20T08:13:52.329Z,4.13
2023-12-20T08:16:18.980Z,3.65
2023-12-20T08:18:45.672Z,3.40
2023-12-20T08:21:12.729Z,3.00
2023-12-20T08:23:39.163Z,3.42
2023-12-20T08:26:09.008Z,3.75
2023-12-20T08:28:35.811Z,4.03
2023-12-20T08:31:02.424Z,3.90
2023-12-20T08:33:29.074Z,3.95
2023-12-20T08:35:55.518Z,3.90
2023-12-20T08:38:21.948Z,4.28
2023-12-20T08:40:49.582Z,4.55
2023-12-20T08:43:16.051Z,4.45
2023-12-20T08:45:42.745Z,4.05
2023-12-20T08:48:09.934Z,3.80
2023-12-20T08:50:37.819Z,4.15
2023-12-20T08:53:04.515Z,3.78
2023-12-20T08:55:32.310Z,4.10
2023-12-20T08:57:58.860Z,4.03
2023-12-20T09:00:28.561Z,3.60
2023-12-20T09:02:55.883Z,3.72
2023-12-20T09:05:22.526Z,4.32
2023-12-20T09:07:49.331Z,4.00
2023-12-20T09:10:18.472Z,4.50
2023-12-20T09:12:48.262Z,4.15
2023-12-20T09:15:14.838Z,4.03
2023-12-20T09:17:42.782Z,3.65
2023-12-20T09:20:10.096Z,5.10
2023-12-20T09:22:36.953Z,3.95
2023-12-20T09:25:04.060Z,5.18
2023-12-20T09:27:30.667Z,4.35
2023-12-20T09:29:57.108Z,4.72
2023-12-20T09:32:23.534Z,4.72
2023-12-20T09:34:50.310Z,4.90
2023-12-20T09:37:16.897Z,4.65
2023-12-20T09:39:43.364Z,4.75
2023-12-20T09:42:13.095Z,4.40
2023-12-20T09:44:44.685Z,4.95
2023-12-20T09:47:12.999Z,5.32
2023-12-20T09:49:39.527Z,4.88
2023-12-20T09:52:07.907Z,4.38
2023-12-20T09:54:34.430Z,4.53
2023-12-20T09:57:00.825Z,4.85
2023-12-20T09:59:27.257Z,4.00
2023-12-20T10:01:58.429Z,4.95
2023-12-20T10:04:30.250Z,3.83
2023-12-20T10:06:58.113Z,4.50
2023-12-20T10:09:25.115Z,4.72
2023-12-20T10:11:55.448Z,4.25
2023-12-20T10:14:23.990Z,4.07
2023-12-20T10:16:51.088Z,3.30
2023-12-20T10:19:19.396Z,3.40
2023-12-20T10:21:46.855Z,3.45
2023-12-20T10:24:18.933Z,3.42
2023-12-20T10:26:45.390Z,3.17
2023-12-20T10:29:11.784Z,3.95
2023-12-20T10:31:39.901Z,3.40
2023-12-20T10:34:06.739Z,3.40
2023-12-20T10:36:34.569Z,3.50
2023-12-20T10:39:02.352Z,3.28
2023-12-20T10:41:31.024Z,3.17
2023-12-20T10:44:00.233Z,3.30
2023-12-20T10:46:31.703Z,4.03
2023-12-20T10:48:58.629Z,3.30
2023-12-20T10:51:27.404Z,4.25
2023-12-20T10:53:54.682Z,3.38
2023-12-20T10:56:22.380Z,4.40
2023-12-20T10:58:50.413Z,3.38
2023-12-20T11:01:22.222Z,3.70
2023-12-20T11:03:53.912Z,3.17
2023-12-20T11:06:32.249Z,3.47
2023-12-20T11:09:26.265Z,3.55
2023-12-20T11:12:01.798Z,2.80
2023-12-20T11:14:35.946Z,3.20
2023-12-20T11:17:14.822Z,3.15
2023-12-20T11:19:53.470Z,2.55
2023-12-20T11:22:21.592Z,2.83
2023-12-20T11:24:49.565Z,3.13
2023-12-20T11:27:16.077Z,3.03
2023-12-20T11:29:42.905Z,3.58
2023-12-20T11:32:30.033Z,3.33
2023-12-20T11:34:59.453Z,3.50
2023-12-20T11:37:52.404Z,2.95
2023-12-20T11:40:19.722Z,3.33
2023-12-20T11:42:49.584Z,3.05
2023-12-20T11:45:20.724Z,3.55
2023-12-20T11:47:48.993Z,2.83
2023-12-20T11:50:15.778Z,2.95
2023-12-20T11:52:42.308Z,3.33
2023-12-20T11:55:08.854Z,3.22
2023-12-20T11:57:35.359Z,3.10
2023-12-20T12:00:01.879Z,2.92
2023-12-20T12:02:28.360Z,3.70
2023-12-20T12:04:54.983Z,3.25
2023-12-20T12:07:21.545Z,2.78
2023-12-20T12:09:48.202Z,3.20
2023-12-20T12:12:15.438Z,2.92
2023-12-20T12:14:41.909Z,2.95
2023-12-20T12:17:15.200Z,3.53
2023-12-20T12:19:43.008Z,3.30
2023-12-20T12:22:17.843Z,3.88
2023-12-20T12:24:45.376Z,3.08
2023-12-20T12:27:13.804Z,2.55
2023-12-20T12:29:40.830Z,2.55
2023-12-20T12:32:09.581Z,2.45
2023-12-20T12:34:37.180Z,2.20
2023-12-20T12:37:05.129Z,2.03
2023-12-20T12:39:31.600Z,2.45
2023-12-20T12:41:58.425Z,2.22
2023-12-20T12:44:26.075Z,1.75
2023-12-20T12:46:54.428Z,1.90
2023-12-20T12:49:24.844Z,2.08
2023-12-20T12:51:52.344Z,1.70
2023-12-20T12:54:19.273Z,1.70
2023-12-20T12:56:46.145Z,1.50
2023-12-20T12:59:12.885Z,1.25
2023-12-20T13:01:40.316Z,1.83
2023-12-20T13:04:11.626Z,2.38
2023-12-20T13:06:39.108Z,1.80
2023-12-20T13:09:06.138Z,2.30
2023-12-20T13:11:32.911Z,1.92
2023-12-20T13:13:59.538Z,2.10
2023-12-20T13:16:26.293Z,2.50
2023-12-20T13:18:53.004Z,2.28
2023-12-20T13:21:19.553Z,2.40
2023-12-20T13:23:45.983Z,2.17
2023-12-20T13:26:12.389Z,2.63
2023-12-20T13:28:38.938Z,2.00
2023-12-20T13:31:05.477Z,2.38
2023-12-20T13:33:32.025Z,2.35
2023-12-20T13:35:59.351Z,2.40
2023-12-20T13:38:25.998Z,1.92
2023-12-20T13:40:52.453Z,1.75
2023-12-20T13:43:22.068Z,1.98
2023-12-20T13:45:49.443Z,1.63
2023-12-20T13:48:15.907Z,1.55
2023-12-20T13:50:42.388Z,2.38
2023-12-20T13:53:08.802Z,2.08
2023-12-20T13:55:35.325Z,1.42
2023-12-20T13:58:02.169Z,1.83
2023-12-20T14:00:28.766Z,1.63
2023-12-20T14:02:55.196Z,1.60
2023-12-20T14:05:24.834Z,1.15
2023-12-20T14:07:53.803Z,1.65
2023-12-20T14:10:20.363Z,1.50
2023-12-20T14:12:46.849Z,1.45
2023-12-20T14:15:14.363Z,1.38
2023-12-20T14:17:43.411Z,1.63
2023-12-20T14:20:10.526Z,1.88
2023-12-20T14:22:37.376Z,1.30
2023-12-20T14:25:04.273Z,10.18
2023-12-20T14:27:30.932Z,16.65
2023-12-20T14:29:57.638Z,29.30
2023-12-20T14:32:24.983Z,55.88
2023-12-20T14:34:51.641Z,50.30
2023-12-20T14:37:18.612Z,22.98
2023-12-20T14:39:45.060Z,17.60
2023-12-20T14:42:14.639Z,14.82
2023-12-20T14:44:41.992Z,15.82
2023-12-20T14:47:08.756Z,34.50
2023-12-20T14:49:35.828Z,32.97
2023-12-20T14:52:03.085Z,22.15
2023-12-20T14:54:29.529Z,23.90
2023-12-20T14:56:56.832Z,29.05
2023-12-20T14:59:31.446Z,9.88
2023-12-20T15:01:58.057Z,10.50
2023-12-20T15:04:29.706Z,26.75
2023-12-20T15:29:32.615Z,5.50
2023-12-20T15:31:59.121Z,3.65
2023-12-20T15:34:25.673Z,2.85
2023-12-20T15:36:52.256Z,2.72
2023-12-20T15:39:18.768Z,3.15
2023-12-20T15:41:45.188Z,3.42
2023-12-20T15:44:11.619Z,2.28
2023-12-20T15:46:38.094Z,3.38
2023-12-20T15:49:04.835Z,2.92
2023-12-20T15:51:31.284Z,2.65
2023-12-20T15:53:58.514Z,3.00
2023-12-20T15:56:25.028Z,2.72
2023-12-20T15:58:53.223Z,3.33
2023-12-20T16:01:19.842Z,3.60
2023-12-20T16:03:51.254Z,4.22
2023-12-20T16:06:23.198Z,3.47
2023-12-20T16:08:49.723Z,3.95
2023-12-20T16:11:16.909Z,4.32
2023-12-20T16:13:43.357Z,4.28
2023-12-20T16:16:10.556Z,4.20
2023-12-20T16:18:37.039Z,3.42
2023-12-20T16:21:04.266Z,4.18
2023-12-20T16:23:31.390Z,3.85
2023-12-20T16:25:58.863Z,4.18
2023-12-20T16:28:25.625Z,4.80
2023-12-20T16:30:52.749Z,4.82
2023-12-20T16:33:19.645Z,4.65
2023-12-20T16:35:46.233Z,3.90
2023-12-20T16:38:12.746Z,3.20
2023-12-20T16:40:39.235Z,4.32
2023-12-20T16:43:05.766Z,4.68
2023-12-20T16:45:32.272Z,4.55
2023-12-20T16:47:58.791Z,4.18
2023-12-20T16:50:25.396Z,4.72
2023-12-20T16:52:52.781Z,4.55
2023-12-20T16:55:19.788Z,4.32
2023-12-20T16:57:46.977Z,4.57
2023-12-20T17:00:14.743Z,4.47
2023-12-20T17:02:41.409Z,4.50
2023-12-20T17:05:08.534Z,5.32
2023-12-20T17:07:35.012Z,4.88
2023-12-20T17:10:01.793Z,4.90
2023-12-20T17:12:28.279Z,3.95
2023-12-20T17:14:54.851Z,4.25
2023-12-20T17:17:21.394Z,4.40
2023-12-20T17:19:48.095Z,5.18
2023-12-20T17:22:14.816Z,3.90
2023-12-20T17:24:41.252Z,4.13
2023-12-20T17:27:07.789Z,4.97
2023-12-20T17:29:34.170Z,5.28
2023-12-20T17:32:00.701Z,4.75
2023-12-20T17:34:27.764Z,5.45
2023-12-20T17:36:54.318Z,5.20
2023-12-20T17:39:21.278Z,5.50
2023-12-20T17:41:47.810Z,5.53
2023-12-20T17:44:15.545Z,6.00
2023-12-20T17:46:42.121Z,5.97
2023-12-20T17:49:09.365Z,5.85
2023-12-20T17:51:35.873Z,6.13
2023-12-20T17:54:04.612Z,6.20
2023-12-20T17:56:31.408Z,6.70
2023-12-20T17:58:57.909Z,6.70
2023-12-20T18:01:24.528Z,7.25
2023-12-20T18:03:51.522Z,6.97
2023-12-20T18:06:18.156Z,7.40
2023-12-20T18:08:44.756Z,7.20
2023-12-20T18:11:11.213Z,8.13
2023-12-20T18:13:37.674Z,7.47
2023-12-20T18:16:10.384Z,7.22
2023-12-20T18:18:37.980Z,7.07
2023-12-20T18:21:05.095Z,7.30
2023-12-20T18:23:31.537Z,7.82
2023-12-20T18:25:58.374Z,7.53
2023-12-20T18:28:24.964Z,7.10
2023-12-20T18:30:51.472Z,6.80
2023-12-20T18:33:18.018Z,7.70
2023-12-20T18:35:46.328Z,7.22
2023-12-20T18:38:14.095Z,7.90
2023-12-20T18:40:47.828Z,6.78
2023-12-20T18:43:15.601Z,7.40
2023-12-20T18:45:42.317Z,6.45
2023-12-20T18:48:09.410Z,7.70
2023-12-20T18:50:37.287Z,7.38
2023-12-20T18:53:04.190Z,7.20
2023-12-20T18:55:30.711Z,7.45
2023-12-20T18:57:57.333Z,7.35
2023-12-20T19:00:24.146Z,7.32
2023-12-20T19:02:51.748Z,7.10
2023-12-20T19:05:19.836Z,8.40
2023-12-20T19:07:47.086Z,7.88
2023-12-20T19:10:13.897Z,8.45
2023-12-20T19:12:40.437Z,7.78
2023-12-20T19:15:07.403Z,8.35
2023-12-20T19:17:34.471Z,8.57
2023-12-20T19:20:02.160Z,7.75
2023-12-20T19:22:33.048Z,7.82
2023-12-20T19:25:06.406Z,8.02
2023-12-20T19:27:34.105Z,7.82
2023-12-20T19:30:01.096Z,7.68
2023-12-20T19:32:28.566Z,8.18
2023-12-20T19:34:56.669Z,7.13
2023-12-20T19:37:23.856Z,7.90
2023-12-20T19:39:50.471Z,7.57
2023-12-20T19:42:17.001Z,6.57
2023-12-20T19:44:44.384Z,7.25
2023-12-20T19:47:11.800Z,7.13
2023-12-20T19:49:39.173Z,6.60
2023-12-20T19:52:06.013Z,6.95
2023-12-20T19:54:32.904Z,6.90
2023-12-20T19:56:59.347Z,6.50
2023-12-20T19:59:25.881Z,6.30
2023-12-20T20:01:52.394Z,6.75
2023-12-20T20:04:19.808Z,6.75
2023-12-20T20:06:46.742Z,6.18
2023-12-20T20:09:13.218Z,5.97
2023-12-20T20:11:39.639Z,5.30
2023-12-20T20:14:06.536Z,5.55
2023-12-20T20:16:33.052Z,5.75
2023-12-20T20:18:59.777Z,5.60
2023-12-20T20:21:26.429Z,4.82
2023-12-20T20:23:52.906Z,5.40
2023-12-20T20:26:19.352Z,4.75
2023-12-20T20:28:47.453Z,4.75
2023-12-20T20:31:14.576Z,5.47
2023-12-20T20:33:41.538Z,4.55
2023-12-20T20:36:09.065Z,4.40
2023-12-20T20:38:35.488Z,4.90
2023-12-20T20:41:01.955Z,4.25
2023-12-20T20:43:28.532Z,4.78
2023-12-20T20:45:55.124Z,4.13
2023-12-20T20:48:27.791Z,4.20
2023-12-20T20:51:00.755Z,4.63
2023-12-20T20:53:27.489Z,4.30
2023-12-20T20:55:54.162Z,4.32
2023-12-20T20:58:21.041Z,3.88
2023-12-20T21:00:47.699Z,4.35
2023-12-20T21:03:14.104Z,4.50
2023-12-20T21:05:41.069Z,4.35
2023-12-20T21:08:08.069Z,3.80
2023-12-20T21:10:34.615Z,3.83
2023-12-20T21:13:01.080Z,4.30
2023-12-20T21:15:27.581Z,4.32
2023-12-20T21:17:54.222Z,4.55
2023-12-20T21:20:21.315Z,4.40
2023-12-20T21:22:47.894Z,3.88
2023-12-20T21:25:14.481Z,4.30
2023-12-20T21:27:41.794Z,3.75
2023-12-20T21:30:11.230Z,4.05
2023-12-20T21:32:39.693Z,4.32
2023-12-20T21:35:07.515Z,4.00
2023-12-20T21:37:34.300Z,4.22
2023-12-20T21:40:01.100Z,4.20
2023-12-20T21:42:27.647Z,4.35
2023-12-20T21:44:57.257Z,4.22
2023-12-20T21:47:23.661Z,4.78
2023-12-20T21:49:50.132Z,3.90
2023-12-20T21:52:19.338Z,4.32
2023-12-20T21:54:46.955Z,3.60
2023-12-20T21:57:13.408Z,4.25
2023-12-20T21:59:40.028Z,4.03
2023-12-20T22:02:08.335Z,3.97
2023-12-20T22:04:35.192Z,4.45
2023-12-20T22:07:01.709Z,4.25
2023-12-20T22:09:28.134Z,4.10
2023-12-20T22:11:54.646Z,4.40
2023-12-20T22:14:21.808Z,3.90
2023-12-20T22:16:48.285Z,4.32
2023-12-20T22:19:14.749Z,4.28
2023-12-20T22:21:41.280Z,4.50
2023-12-20T22:24:07.856Z,4.28
2023-12-20T22:26:34.547Z,3.72
2023-12-20T22:29:01.180Z,4.40
2023-12-20T22:31:27.652Z,3.70
2023-12-20T22:33:54.809Z,3.92
2023-12-20T22:36:21.837Z,3.63
2023-12-20T22:38:48.404Z,3.28
2023-12-20T22:41:15.759Z,3.63
2023-12-20T22:43:42.655Z,3.38
2023-12-20T22:46:09.320Z,3.10
2023-12-20T22:48:36.072Z,2.97
2023-12-20T22:51:03.692Z,2.97
2023-12-20T22:53:30.175Z,2.50
2023-12-20T22:55:56.832Z,2.65
2023-12-20T22:58:23.364Z,2.70
2023-12-20T23:00:50.832Z,2.40
2023-12-20T23:03:17.444Z,2.30
2023-12-20T23:05:44.423Z,2.40
2023-12-20T23:08:12.124Z,2.17
2023-12-20T23:10:38.793Z,2.05
2023-12-20T23:13:05.406Z,2.28
2023-12-20T23:15:31.984Z,1.60
2023-12-20T23:17:59.029Z,1.75
2023-12-20T23:20:25.561Z,1.98
2023-12-20T23:22:52.084Z,1.80
2023-12-20T23:25:18.643Z,1.70
2023-12-20T23:27:50.646Z,1.58
2023-12-20T23:30:17.831Z,1.70
2023-12-20T23:32:44.457Z,1.90
2023-12-20T23:35:16.165Z,1.50
2023-12-20T23:37:44.457Z,1.38
2023-12-20T23:40:11.447Z,1.63
2023-12-20T23:42:37.964Z,1.70
2023-12-20T23:45:05.500Z,1.63
2023-12-20T23:47:31.971Z,1.42
2023-12-20T23:49:58.742Z,1.60
2023-12-20T23:52:26.149Z,1.67
2023-12-20T23:54:52.738Z,1.58
2023-12-20T23:57:19.237Z,1.80
2023-12-20T23:59:45.668Z,1.80
